createdAt,value
2022-08-17T00:01:52.099Z,28.37
2022-08-17T00:04:24.564Z,28.29
2022-08-17T00:06:55.305Z,28.21
2022-08-17T00:09:26.112Z,28.13
2022-08-17T00:12:41.774Z,28.09
2022-08-17T00:14:50.470Z,28.04
2022-08-17T00:17:21.620Z,28.04
2022-08-17T00:19:52.518Z,27.99
2022-08-17T00:22:32.061Z,27.88
2022-08-17T00:25:09.182Z,27.87
2022-08-17T00:27:40.267Z,27.82
2022-08-17T00:30:14.324Z,27.79
2022-08-17T00:33:12.568Z,27.77
2022-08-17T00:35:39.626Z,27.77
2022-08-17T00:38:12.243Z,27.80
2022-08-17T00:40:46.268Z,27.81
2022-08-17T00:43:21.907Z,27.86
2022-08-17T00:45:52.770Z,27.87
2022-08-17T00:48:29.883Z,27.89
2022-08-17T00:51:08.914Z,27.91
2022-08-17T00:53:44.938Z,27.92
2022-08-17T00:56:22.052Z,27.92
2022-08-17T00:58:55.790Z,27.89
2022-08-17T01:01:27.790Z,27.89
2022-08-17T01:04:00.004Z,27.88
2022-08-17T01:06:32.991Z,27.90
2022-08-17T01:09:06.037Z,27.91
2022-08-17T01:11:38.065Z,27.84
2022-08-17T01:14:09.493Z,27.77
2022-08-17T01:16:41.192Z,27.69
2022-08-17T01:19:16.998Z,27.63
2022-08-17T01:21:56.397Z,27.57
2022-08-17T01:24:26.009Z,27.52
2022-08-17T01:26:57.742Z,27.43
2022-08-17T01:29:30.867Z,27.46
2022-08-17T01:32:05.671Z,27.49
2022-08-17T01:34:42.831Z,27.54
2022-08-17T01:37:15.845Z,27.57
2022-08-17T01:39:50.648Z,27.50
2022-08-17T01:42:27.727Z,27.44
2022-08-17T01:45:03.700Z,27.37
2022-08-17T01:47:36.134Z,27.33
2022-08-17T01:50:16.901Z,27.28
2022-08-17T01:52:49.864Z,27.19
2022-08-17T01:55:27.406Z,27.15
2022-08-17T01:57:58.635Z,27.20
2022-08-17T02:00:46.813Z,27.33
2022-08-17T02:03:21.778Z,27.39
2022-08-17T02:05:54.383Z,27.43
2022-08-17T02:08:39.547Z,27.42
2022-08-17T02:11:20.023Z,27.39
2022-08-17T02:14:02.405Z,27.36
2022-08-17T02:16:37.744Z,27.37
2022-08-17T02:19:11.797Z,27.42
2022-08-17T02:21:44.390Z,27.49
2022-08-17T02:24:58.306Z,27.46
2022-08-17T02:27:11.378Z,27.43
2022-08-17T02:29:42.168Z,27.43
2022-08-17T02:32:28.256Z,27.43
2022-08-17T02:35:00.941Z,27.43
2022-08-17T02:37:32.786Z,27.43
2022-08-17T02:40:04.788Z,27.42
2022-08-17T02:42:39.749Z,27.39
2022-08-17T02:45:14.792Z,27.36
2022-08-17T02:47:45.755Z,27.39
2022-08-17T02:50:19.224Z,27.41
2022-08-17T02:52:51.553Z,27.45
2022-08-17T02:55:37.682Z,27.33
2022-08-17T02:58:10.737Z,27.19
2022-08-17T03:00:44.213Z,27.06
2022-08-17T03:03:18.963Z,26.97
2022-08-17T03:05:53.227Z,26.90
2022-08-17T03:08:25.608Z,26.88
2022-08-17T03:10:57.194Z,26.84
2022-08-17T03:13:28.478Z,26.78
2022-08-17T03:15:59.820Z,26.77
2022-08-17T03:18:30.737Z,26.74
2022-08-17T03:21:04.482Z,26.73
2022-08-17T03:23:40.981Z,26.73
2022-08-17T03:26:15.564Z,26.73
2022-08-17T03:28:47.063Z,26.69
2022-08-17T03:31:18.449Z,26.66
2022-08-17T03:33:49.450Z,26.69
2022-08-17T03:36:20.376Z,26.71
2022-08-17T03:38:51.793Z,26.72
2022-08-17T03:41:23.105Z,26.73
2022-08-17T03:43:53.856Z,26.71
2022-08-17T03:46:42.446Z,26.71
2022-08-17T03:49:30.831Z,26.66
2022-08-17T03:52:19.328Z,26.58
2022-08-17T03:55:08.074Z,26.62
2022-08-17T03:57:40.081Z,26.70
2022-08-17T04:00:12.640Z,26.76
2022-08-17T04:02:45.210Z,26.71
2022-08-17T04:05:16.363Z,26.56
2022-08-17T04:07:47.121Z,26.44
2022-08-17T04:10:18.079Z,26.40
2022-08-17T04:12:52.921Z,26.38
2022-08-17T04:15:24.433Z,26.37
2022-08-17T04:17:56.022Z,26.37
2022-08-17T04:20:27.992Z,26.30
2022-08-17T04:23:04.931Z,26.20
2022-08-17T04:25:37.549Z,26.09
2022-08-17T04:28:16.135Z,26.01
2022-08-17T04:30:48.454Z,25.96
2022-08-17T04:33:24.069Z,26.04
2022-08-17T04:35:56.883Z,26.16
2022-08-17T04:38:29.413Z,26.21
2022-08-17T04:41:18.502Z,26.23
2022-08-17T04:43:50.545Z,26.26
2022-08-17T04:46:24.718Z,26.30
2022-08-17T04:48:58.488Z,26.42
2022-08-17T04:51:32.444Z,26.66
2022-08-17T04:54:06.496Z,26.88
2022-08-17T04:56:38.591Z,27.10
2022-08-17T04:59:11.101Z,27.27
2022-08-17T05:01:45.802Z,27.41
2022-08-17T05:04:21.350Z,27.55
2022-08-17T05:07:05.760Z,27.67
2022-08-17T05:09:36.802Z,27.78
2022-08-17T05:12:08.579Z,27.87
2022-08-17T05:14:41.357Z,27.94
2022-08-17T05:17:12.232Z,28.01
2022-08-17T05:19:43.412Z,28.08
2022-08-17T05:22:15.307Z,28.15
2022-08-17T05:24:53.728Z,28.20
2022-08-17T05:27:29.821Z,28.25
2022-08-17T05:30:07.238Z,28.30
2022-08-17T05:32:40.363Z,28.36
2022-08-17T05:35:10.562Z,28.40
2022-08-17T05:37:41.530Z,28.42
2022-08-17T05:40:14.304Z,28.47
2022-08-17T05:42:45.041Z,28.53
2022-08-17T05:45:23.629Z,28.57
2022-08-17T05:48:10.349Z,28.61
2022-08-17T05:50:57.194Z,28.64
2022-08-17T05:53:40.314Z,28.67
2022-08-17T05:56:29.754Z,28.72
2022-08-17T05:59:12.513Z,28.74
2022-08-17T06:01:49.729Z,28.77
2022-08-17T06:04:31.952Z,28.80
2022-08-17T06:07:13.302Z,28.84
2022-08-17T06:09:51.000Z,28.89
2022-08-17T06:12:41.182Z,28.95
2022-08-17T06:15:29.889Z,28.99
2022-08-17T06:18:05.064Z,29.04
2022-08-17T06:20:45.407Z,29.07
2022-08-17T06:23:22.592Z,29.10
2022-08-17T06:25:59.043Z,29.14
2022-08-17T06:28:37.652Z,29.17
2022-08-17T06:31:29.362Z,29.19
2022-08-17T06:34:02.856Z,29.22
2022-08-17T06:36:49.050Z,29.26
2022-08-17T06:39:35.996Z,29.29
2022-08-17T06:43:02.814Z,29.33
2022-08-17T06:45:18.108Z,29.38
2022-08-17T06:47:56.771Z,29.42
2022-08-17T06:50:36.018Z,29.46
2022-08-17T06:53:17.918Z,29.50
2022-08-17T06:55:54.714Z,29.52
2022-08-17T06:58:29.656Z,29.57
2022-08-17T07:01:07.382Z,29.62
2022-08-17T07:03:54.821Z,29.65
2022-08-17T07:06:30.576Z,29.70
2022-08-17T07:09:08.971Z,29.72
2022-08-17T07:11:44.884Z,29.75
2022-08-17T07:14:28.920Z,29.78
2022-08-17T07:17:03.092Z,29.82
2022-08-17T07:19:36.912Z,29.84
2022-08-17T07:22:16.072Z,29.84
2022-08-17T07:24:51.733Z,29.86
2022-08-17T07:27:26.907Z,29.89
2022-08-17T07:30:08.042Z,29.92
2022-08-17T07:32:45.421Z,29.92
2022-08-17T07:35:22.186Z,29.95
2022-08-17T07:38:25.008Z,29.97
2022-08-17T07:41:06.520Z,30.01
2022-08-17T07:43:46.622Z,30.03
2022-08-17T07:46:38.711Z,30.05
2022-08-17T07:49:26.080Z,30.08
2022-08-17T07:52:47.944Z,30.11
2022-08-17T07:54:56.187Z,30.15
2022-08-17T07:57:33.733Z,30.19
2022-08-17T08:00:26.619Z,30.22
2022-08-17T08:03:22.142Z,30.25
2022-08-17T08:06:00.370Z,30.30
2022-08-17T08:08:51.912Z,30.36
2022-08-17T08:11:34.843Z,30.42
2022-08-17T08:14:28.387Z,30.48
2022-08-17T08:17:02.164Z,30.51
2022-08-17T08:19:34.241Z,30.51
2022-08-17T08:22:11.202Z,30.52
2022-08-17T08:25:03.392Z,30.53
2022-08-17T08:27:48.726Z,30.54
2022-08-17T08:30:19.336Z,30.58
2022-08-17T08:33:10.341Z,30.58
2022-08-17T08:35:47.791Z,30.60
2022-08-17T08:38:30.920Z,30.63
2022-08-17T08:41:19.362Z,30.66
2022-08-17T08:44:01.026Z,30.71
2022-08-17T08:47:00.535Z,30.73
2022-08-17T08:50:05.904Z,30.75
2022-08-17T08:53:01.148Z,30.78
2022-08-17T08:55:40.711Z,30.82
2022-08-17T08:58:31.366Z,30.87
2022-08-17T09:01:17.225Z,30.94
2022-08-17T09:04:24.812Z,31.02
2022-08-17T09:07:09.399Z,31.08
2022-08-17T09:09:49.765Z,31.16
2022-08-17T09:12:29.377Z,31.22
2022-08-17T09:15:10.845Z,31.26
2022-08-17T09:18:08.588Z,31.30
2022-08-17T09:20:50.844Z,31.33
2022-08-17T09:23:32.770Z,31.39
2022-08-17T09:26:10.350Z,31.43
2022-08-17T09:28:45.738Z,31.48
2022-08-17T09:31:21.725Z,31.52
2022-08-17T09:33:55.574Z,31.55
2022-08-17T09:36:31.240Z,31.59
2022-08-17T09:39:08.663Z,31.63
2022-08-17T09:41:48.716Z,31.66
2022-08-17T09:44:29.670Z,31.70
2022-08-17T09:47:07.197Z,31.71
2022-08-17T09:49:44.538Z,31.71
2022-08-17T09:52:21.875Z,31.73
2022-08-17T09:54:54.150Z,31.77
2022-08-17T09:57:49.566Z,31.80
2022-08-17T10:00:27.847Z,31.84
2022-08-17T10:03:21.227Z,31.87
2022-08-17T10:05:57.955Z,31.89
2022-08-17T10:08:38.113Z,31.92
2022-08-17T10:11:33.861Z,31.94
2022-08-17T10:14:35.954Z,31.96
2022-08-17T10:17:21.914Z,31.99
2022-08-17T10:19:59.803Z,32.01
2022-08-17T10:22:55.075Z,32.04
2022-08-17T10:26:00.282Z,32.06
2022-08-17T10:28:39.242Z,32.09
2022-08-17T10:31:34.167Z,32.11
2022-08-17T10:34:23.080Z,32.13
2022-08-17T10:37:06.411Z,32.16
2022-08-17T10:39:52.098Z,32.19
2022-08-17T10:42:32.427Z,32.22
2022-08-17T10:45:08.669Z,32.24
2022-08-17T10:48:06.344Z,32.25
2022-08-17T10:51:01.743Z,32.27
2022-08-17T10:53:57.453Z,32.29
2022-08-17T10:56:43.003Z,32.32
2022-08-17T10:59:48.492Z,32.35
2022-08-17T11:02:31.681Z,32.37
2022-08-17T11:05:18.945Z,32.38
2022-08-17T11:08:14.402Z,32.41
2022-08-17T11:11:06.437Z,32.43
2022-08-17T11:13:48.635Z,32.39
2022-08-17T11:16:38.998Z,32.41
2022-08-17T11:19:34.829Z,32.42
2022-08-17T11:22:23.054Z,32.45
2022-08-17T11:24:55.954Z,32.47
2022-08-17T11:27:31.168Z,32.49
2022-08-17T11:30:04.838Z,32.51
2022-08-17T11:32:47.330Z,32.54
2022-08-17T11:35:35.345Z,32.60
2022-08-17T11:38:19.818Z,32.63
2022-08-17T11:41:09.956Z,32.66
2022-08-17T11:44:18.972Z,32.68
2022-08-17T11:47:27.323Z,32.69
2022-08-17T11:50:35.313Z,32.71
2022-08-17T11:53:06.812Z,32.73
2022-08-17T11:56:05.214Z,32.73
2022-08-17T11:58:40.051Z,32.73
2022-08-17T12:01:13.820Z,32.74
2022-08-17T12:03:57.070Z,32.79
2022-08-17T12:06:34.656Z,32.83
2022-08-17T12:09:13.227Z,32.85
2022-08-17T12:11:56.305Z,32.87
2022-08-17T12:15:08.791Z,32.88
2022-08-17T12:17:41.030Z,32.89
2022-08-17T12:20:21.556Z,32.90
2022-08-17T12:23:04.650Z,32.91
2022-08-17T12:25:40.334Z,32.94
2022-08-17T12:28:23.781Z,32.96
2022-08-17T12:30:57.296Z,32.97
2022-08-17T12:33:29.162Z,32.99
2022-08-17T12:36:03.095Z,33.01
2022-08-17T12:38:37.053Z,33.02
2022-08-17T12:41:23.693Z,33.04
2022-08-17T12:44:02.740Z,33.05
2022-08-17T12:46:46.515Z,33.08
2022-08-17T12:49:23.732Z,33.11
2022-08-17T12:52:01.397Z,33.14
2022-08-17T12:54:37.769Z,33.17
2022-08-17T12:57:12.702Z,33.20
2022-08-17T12:59:48.000Z,33.22
2022-08-17T13:02:29.947Z,33.24
2022-08-17T13:05:03.038Z,33.27
2022-08-17T13:07:35.208Z,33.29
2022-08-17T13:10:07.246Z,33.28
2022-08-17T13:12:40.082Z,33.30
2022-08-17T13:15:18.299Z,33.31
2022-08-17T13:18:05.821Z,33.31
2022-08-17T13:20:38.790Z,33.32
2022-08-17T13:23:12.651Z,33.35
2022-08-17T13:25:46.797Z,33.37
2022-08-17T13:28:30.646Z,33.37
2022-08-17T13:31:33.402Z,33.34
2022-08-17T13:34:19.427Z,33.35
2022-08-17T13:36:52.231Z,33.38
2022-08-17T13:39:26.302Z,33.37
2022-08-17T13:41:57.989Z,33.39
2022-08-17T13:44:37.920Z,33.41
2022-08-17T13:47:19.721Z,33.42
2022-08-17T13:49:51.791Z,33.43
2022-08-17T13:52:39.292Z,33.44
2022-08-17T13:55:18.075Z,33.44
2022-08-17T13:58:06.654Z,33.45
2022-08-17T14:00:39.598Z,33.47
2022-08-17T14:03:10.743Z,33.48
2022-08-17T14:05:42.678Z,33.48
2022-08-17T14:08:15.922Z,33.49
2022-08-17T14:10:50.836Z,33.50
2022-08-17T14:13:21.777Z,33.52
2022-08-17T14:15:53.957Z,33.52
2022-08-17T14:18:35.723Z,33.54
2022-08-17T14:21:17.987Z,33.55
2022-08-17T14:23:54.757Z,33.56
2022-08-17T14:26:26.425Z,33.57
2022-08-17T14:28:57.396Z,33.57
2022-08-17T14:31:31.864Z,33.59
2022-08-17T14:34:06.336Z,33.60
2022-08-17T14:36:37.509Z,33.61
2022-08-17T14:39:08.837Z,33.62
2022-08-17T14:41:40.914Z,33.63
2022-08-17T14:44:13.253Z,33.64
2022-08-17T14:46:46.067Z,33.65
2022-08-17T14:49:17.421Z,33.67
2022-08-17T14:51:48.486Z,33.69
2022-08-17T14:54:28.768Z,33.70
2022-08-17T14:57:24.750Z,33.70
2022-08-17T14:59:57.927Z,33.69
2022-08-17T15:02:30.827Z,33.69
2022-08-17T15:05:06.394Z,33.71
2022-08-17T15:07:37.168Z,33.72
2022-08-17T15:10:09.954Z,33.73
2022-08-17T15:12:41.328Z,33.73
2022-08-17T15:15:15.062Z,33.74
2022-08-17T15:17:46.333Z,33.75
2022-08-17T15:20:19.409Z,33.76
2022-08-17T15:22:50.235Z,33.77
2022-08-17T15:25:22.452Z,33.77
2022-08-17T15:27:54.237Z,33.77
2022-08-17T15:30:25.812Z,33.79
2022-08-17T15:32:57.664Z,33.80
2022-08-17T15:35:30.927Z,33.80
2022-08-17T15:38:10.662Z,33.82
2022-08-17T15:40:46.895Z,33.82
2022-08-17T15:43:23.452Z,33.83
2022-08-17T15:46:05.616Z,33.84
2022-08-17T15:48:43.413Z,33.83
2022-08-17T15:51:18.678Z,33.81
2022-08-17T15:53:51.689Z,33.83
2022-08-17T15:56:22.775Z,33.85
2022-08-17T15:58:55.150Z,33.85
2022-08-17T16:02:29.848Z,33.86
2022-08-17T16:04:30.084Z,33.86
2022-08-17T16:07:02.250Z,33.85
2022-08-17T16:09:33.054Z,33.86
2022-08-17T16:12:13.867Z,33.88
2022-08-17T16:14:45.155Z,33.88
2022-08-17T16:17:39.762Z,33.90
2022-08-17T16:20:10.083Z,33.89
2022-08-17T16:22:52.915Z,33.90
2022-08-17T16:25:38.258Z,33.90
2022-08-17T16:28:20.818Z,33.91
2022-08-17T16:30:51.690Z,33.93
2022-08-17T16:33:22.673Z,33.94
2022-08-17T16:35:53.512Z,33.95
2022-08-17T16:38:24.409Z,33.96
2022-08-17T16:40:55.323Z,33.96
2022-08-17T16:43:26.265Z,33.94
2022-08-17T16:45:57.388Z,33.92
2022-08-17T16:48:29.086Z,33.91
2022-08-17T16:51:04.191Z,33.90
2022-08-17T16:53:35.373Z,33.88
2022-08-17T16:56:07.575Z,33.87
2022-08-17T16:58:41.150Z,33.87
2022-08-17T17:01:13.948Z,33.86
2022-08-17T17:03:48.038Z,33.86
2022-08-17T17:06:25.799Z,33.86
2022-08-17T17:08:59.000Z,33.86
2022-08-17T17:11:34.549Z,33.85
2022-08-17T17:14:08.254Z,33.85
2022-08-17T17:16:46.437Z,33.84
2022-08-17T17:19:26.314Z,33.84
2022-08-17T17:22:17.235Z,33.86
2022-08-17T17:24:57.463Z,33.87
2022-08-17T17:27:37.588Z,33.86
2022-08-17T17:30:12.133Z,33.85
2022-08-17T17:32:50.629Z,33.86
2022-08-17T17:35:27.599Z,33.86
2022-08-17T17:38:00.829Z,33.85
2022-08-17T17:40:37.943Z,33.84
2022-08-17T17:43:36.971Z,33.81
2022-08-17T17:46:28.521Z,33.82
2022-08-17T17:49:00.817Z,33.84
2022-08-17T17:52:03.588Z,33.86
2022-08-17T17:54:47.773Z,33.87
2022-08-17T17:57:26.258Z,33.86
2022-08-17T18:00:05.589Z,33.86
2022-08-17T18:02:51.728Z,33.86
2022-08-17T18:05:48.510Z,33.83
2022-08-17T18:08:35.279Z,33.80
2022-08-17T18:11:35.010Z,33.78
2022-08-17T18:14:17.607Z,33.80
2022-08-17T18:16:55.172Z,33.79
2022-08-17T18:19:28.471Z,33.80
2022-08-17T18:22:07.653Z,33.79
2022-08-17T18:24:45.826Z,33.78
2022-08-17T18:27:27.806Z,33.77
2022-08-17T18:30:00.022Z,33.77
2022-08-17T18:32:36.563Z,33.70
2022-08-17T18:35:30.317Z,33.69
2022-08-17T18:38:21.827Z,33.67
2022-08-17T18:41:03.021Z,33.68
2022-08-17T18:43:53.256Z,33.67
2022-08-17T18:46:35.271Z,33.67
2022-08-17T18:49:25.158Z,33.68
2022-08-17T18:52:13.088Z,33.70
2022-08-17T18:55:01.047Z,33.69
2022-08-17T18:57:35.468Z,33.69
2022-08-17T19:00:14.690Z,33.68
2022-08-17T19:02:52.346Z,33.68
2022-08-17T19:05:37.970Z,33.64
2022-08-17T19:08:25.048Z,33.65
2022-08-17T19:10:59.565Z,33.64
2022-08-17T19:13:32.933Z,33.64
2022-08-17T19:16:13.864Z,33.64
2022-08-17T19:18:51.159Z,33.63
2022-08-17T19:21:26.614Z,33.62
2022-08-17T19:24:04.601Z,33.57
2022-08-17T19:26:50.586Z,33.48
2022-08-17T19:29:32.260Z,33.44
2022-08-17T19:32:05.500Z,33.40
2022-08-17T19:34:39.570Z,33.36
2022-08-17T19:37:31.126Z,33.35
2022-08-17T19:40:29.288Z,33.32
2022-08-17T19:43:13.078Z,33.26
2022-08-17T19:46:01.800Z,33.21
2022-08-17T19:48:47.237Z,33.21
2022-08-17T19:51:29.573Z,33.20
2022-08-17T19:54:07.113Z,33.21
2022-08-17T19:56:47.898Z,33.22
2022-08-17T19:59:35.971Z,33.22
2022-08-17T20:02:20.977Z,33.20
2022-08-17T20:04:54.456Z,33.19
2022-08-17T20:07:29.754Z,33.20
2022-08-17T20:10:06.603Z,33.22
2022-08-17T20:12:40.108Z,33.22
2022-08-17T20:15:13.165Z,33.22
2022-08-17T20:17:47.340Z,33.22
2022-08-17T20:20:32.022Z,33.23
2022-08-17T20:23:12.470Z,33.22
2022-08-17T20:25:49.221Z,33.22
2022-08-17T20:28:27.948Z,33.22
2022-08-17T20:30:59.550Z,33.22
2022-08-17T20:33:33.595Z,33.23
2022-08-17T20:36:17.106Z,33.22
2022-08-17T20:38:50.544Z,33.21
2022-08-17T20:41:23.369Z,33.21
2022-08-17T20:44:07.637Z,33.23
2022-08-17T20:47:02.408Z,33.24
2022-08-17T20:49:48.596Z,33.26
2022-08-17T20:52:48.440Z,33.29
2022-08-17T20:55:54.803Z,33.31
2022-08-17T20:58:50.148Z,33.31
2022-08-17T21:01:38.993Z,33.32
2022-08-17T21:04:47.548Z,33.31
2022-08-17T21:07:30.239Z,33.29
2022-08-17T21:10:19.925Z,33.31
2022-08-17T21:12:56.371Z,33.33
2022-08-17T21:15:37.643Z,33.33
2022-08-17T21:18:19.522Z,33.33
2022-08-17T21:21:14.066Z,33.34
2022-08-17T21:24:03.706Z,33.37
2022-08-17T21:26:50.814Z,33.38
2022-08-17T21:29:31.256Z,33.38
2022-08-17T21:32:28.709Z,33.38
2022-08-17T21:35:24.703Z,33.38
2022-08-17T21:38:03.545Z,33.39
2022-08-17T21:40:36.261Z,33.40
2022-08-17T21:43:18.403Z,33.40
2022-08-17T21:45:58.679Z,33.41
2022-08-17T21:48:32.529Z,33.41
2022-08-17T21:51:10.607Z,33.42
2022-08-17T21:53:49.340Z,33.42
2022-08-17T21:56:26.855Z,33.41
2022-08-17T21:59:02.332Z,33.39
2022-08-17T22:01:35.649Z,33.40
2022-08-17T22:04:19.561Z,33.41
2022-08-17T22:06:57.293Z,33.42
2022-08-17T22:09:31.901Z,33.42
2022-08-17T22:12:08.082Z,33.43
2022-08-17T22:14:52.155Z,33.43
2022-08-17T22:17:26.818Z,33.45
2022-08-17T22:20:00.795Z,33.45
2022-08-17T22:22:55.733Z,33.45
2022-08-17T22:25:29.667Z,33.45
2022-08-17T22:28:02.207Z,33.46
2022-08-17T22:30:39.737Z,33.46
2022-08-17T22:33:39.605Z,33.47
2022-08-17T22:36:29.190Z,33.48
2022-08-17T22:39:02.294Z,33.48
2022-08-17T22:41:44.363Z,33.46
2022-08-17T22:44:23.324Z,33.48
2022-08-17T22:47:11.325Z,33.48
2022-08-17T22:49:54.728Z,33.47
2022-08-17T22:52:32.940Z,33.48
2022-08-17T22:55:25.657Z,33.49
2022-08-17T22:58:14.038Z,33.51
2022-08-17T23:00:48.499Z,33.51
2022-08-17T23:03:22.275Z,33.50
2022-08-17T23:06:06.724Z,33.48
2022-08-17T23:08:44.246Z,33.47
2022-08-17T23:11:15.116Z,33.45
2022-08-17T23:13:45.945Z,33.44
2022-08-17T23:16:16.668Z,33.45
2022-08-17T23:18:49.630Z,33.46
2022-08-17T23:21:27.099Z,33.46
2022-08-17T23:23:59.149Z,33.46
2022-08-17T23:26:30.390Z,33.47
2022-08-17T23:29:04.508Z,33.49
2022-08-17T23:31:37.375Z,33.47
2022-08-17T23:34:11.449Z,33.47
2022-08-17T23:36:51.305Z,33.48
2022-08-17T23:39:27.508Z,33.48
2022-08-17T23:42:00.312Z,33.49
2022-08-17T23:44:31.182Z,33.51
2022-08-17T23:47:02.532Z,33.52
2022-08-17T23:49:33.953Z,33.54
2022-08-17T23:52:09.890Z,33.54
2022-08-17T23:54:44.622Z,33.51
2022-08-17T23:57:17.760Z,33.52
2022-08-17T23:59:47.022Z,33.52
